createdAt,value
2022-12-19T00:02:57.248Z,98578.75
2022-12-19T00:07:01.815Z,98579.50
2022-12-19T00:11:04.829Z,98612.97
2022-12-19T00:15:09.489Z,98595.19
2022-12-19T00:19:12.666Z,98601.50
2022-12-19T00:23:16.721Z,98621.47
2022-12-19T00:27:19.376Z,98651.22
2022-12-19T00:31:23.902Z,98658.25
2022-12-19T00:35:26.575Z,98651.91
2022-12-19T00:39:30.568Z,98651.63
2022-12-19T00:43:33.191Z,98647.41
2022-12-19T00:47:36.361Z,98629.78
2022-12-19T00:51:39.068Z,98629.72
2022-12-19T00:55:43.061Z,98625.41
2022-12-19T00:59:45.668Z,98620.97
2022-12-19T01:04:26.001Z,98595.66
2022-12-19T01:08:11.480Z,98586.81
2022-12-19T01:12:32.780Z,98578.06
2022-12-19T01:16:35.509Z,98564.97
2022-12-19T01:20:39.873Z,98561.28
2022-12-19T01:24:42.520Z,98562.41
2022-12-19T01:28:46.656Z,98569.38
2022-12-19T01:32:49.321Z,98578.22
2022-12-19T01:36:51.999Z,98578.41
2022-12-19T01:40:56.792Z,98595.72
2022-12-19T01:45:27.771Z,98602.69
2022-12-19T01:49:37.672Z,98594.78
2022-12-19T01:53:48.520Z,98586.19
2022-12-19T01:57:52.502Z,98565.31
2022-12-19T02:02:01.280Z,98532.16
2022-12-19T02:06:06.514Z,98545.34
2022-12-19T02:10:09.770Z,98568.09
2022-12-19T02:14:12.472Z,98543.81
2022-12-19T02:18:22.954Z,98552.28
2022-12-19T02:22:31.617Z,98572.66
2022-12-19T02:26:58.211Z,98562.94
2022-12-19T02:31:15.478Z,98560.13
2022-12-19T02:35:28.871Z,98554.69
2022-12-19T02:39:35.508Z,98560.72
2022-12-19T02:43:42.627Z,98551.09
2022-12-19T02:47:47.721Z,98567.59
2022-12-19T02:51:50.402Z,98565.72
2022-12-19T02:56:23.073Z,98580.50
2022-12-19T03:00:28.718Z,98569.81
2022-12-19T03:04:44.641Z,98566.75
2022-12-19T03:08:53.667Z,98580.84
2022-12-19T03:13:02.093Z,98590.97
2022-12-19T03:17:07.329Z,98590.88
2022-12-19T03:21:18.897Z,98589.00
2022-12-19T03:25:23.388Z,98589.94
2022-12-19T03:29:31.187Z,98603.22
2022-12-19T03:33:34.989Z,98613.56
2022-12-19T03:37:42.859Z,98613.56
2022-12-19T03:42:03.867Z,98595.38
2022-12-19T03:46:14.074Z,98577.88
2022-12-19T03:50:17.131Z,98588.25
2022-12-19T03:54:26.282Z,98582.13
2022-12-19T03:58:33.927Z,98587.13
2022-12-19T04:02:38.765Z,98581.09
2022-12-19T04:06:43.717Z,98576.75
2022-12-19T04:10:52.465Z,98550.16
2022-12-19T04:14:55.196Z,98574.13
2022-12-19T04:19:02.013Z,98612.66
2022-12-19T04:23:10.127Z,98657.44
2022-12-19T04:27:15.344Z,98608.69
2022-12-19T04:31:19.146Z,98633.66
2022-12-19T04:35:21.889Z,98634.41
2022-12-19T04:39:24.620Z,98638.72
2022-12-19T04:43:28.897Z,98660.41
2022-12-19T04:47:31.663Z,98675.34
2022-12-19T04:51:34.339Z,98615.50
2022-12-19T04:55:37.095Z,98607.03
2022-12-19T04:59:41.142Z,98552.63
2022-12-19T05:03:43.853Z,98602.50
2022-12-19T05:07:47.003Z,98617.13
2022-12-19T05:11:49.948Z,98598.66
2022-12-19T05:15:58.440Z,98565.16
2022-12-19T05:20:01.138Z,98586.75
2022-12-19T05:24:03.989Z,98554.19
2022-12-19T05:28:06.678Z,98527.75
2022-12-19T05:32:10.726Z,98472.47
2022-12-19T05:36:15.158Z,98528.66
2022-12-19T05:40:17.905Z,98518.72
2022-12-19T05:44:20.579Z,98539.91
2022-12-19T05:48:24.724Z,98575.06
2022-12-19T05:52:27.504Z,98576.00
2022-12-19T05:56:30.361Z,98546.53
2022-12-19T06:00:33.269Z,98569.72
2022-12-19T06:04:40.381Z,98611.69
2022-12-19T06:08:43.345Z,98651.03
2022-12-19T06:12:46.101Z,98653.66
2022-12-19T06:16:48.849Z,98649.16
2022-12-19T06:21:01.174Z,98646.44
2022-12-19T06:25:03.887Z,98645.25
2022-12-19T06:29:06.606Z,98634.44
2022-12-19T06:33:10.066Z,98598.34
2022-12-19T06:37:14.192Z,98603.81
2022-12-19T06:41:35.198Z,98603.91
2022-12-19T06:45:37.981Z,98649.50
2022-12-19T06:49:40.690Z,98655.44
2022-12-19T06:53:44.715Z,98635.41
2022-12-19T06:57:47.588Z,98632.59
2022-12-19T07:01:58.061Z,98640.25
2022-12-19T07:06:00.952Z,98619.44
2022-12-19T07:10:06.329Z,98616.84
2022-12-19T07:14:09.023Z,98595.91
2022-12-19T07:18:14.009Z,98579.22
2022-12-19T07:22:16.962Z,98570.47
2022-12-19T07:26:21.000Z,98600.25
2022-12-19T07:30:23.716Z,98609.50
2022-12-19T07:34:26.429Z,98598.84
2022-12-19T07:38:29.181Z,98604.72
2022-12-19T07:42:34.090Z,98624.88
2022-12-19T07:46:36.804Z,98634.38
2022-12-19T07:50:39.479Z,98614.38
2022-12-19T07:54:42.165Z,98624.03
2022-12-19T07:58:46.199Z,98620.34
2022-12-19T08:02:49.374Z,98630.53
2022-12-19T08:06:53.183Z,98619.13
2022-12-19T08:10:55.937Z,98621.19
2022-12-19T08:15:00.016Z,98621.59
2022-12-19T08:19:03.196Z,98612.72
2022-12-19T08:23:05.866Z,98625.56
2022-12-19T08:27:08.574Z,98618.94
2022-12-19T08:31:17.186Z,98625.84
2022-12-19T08:35:20.175Z,98623.00
2022-12-19T08:39:22.931Z,98623.94
2022-12-19T08:43:25.638Z,98605.06
2022-12-19T08:47:29.939Z,98608.06
2022-12-19T08:51:32.591Z,98600.69
2022-12-19T08:55:36.730Z,98608.16
2022-12-19T08:59:39.437Z,98607.19
2022-12-19T09:03:47.941Z,98601.06
2022-12-19T09:08:07.918Z,98590.25
2022-12-19T09:12:11.160Z,98589.25
2022-12-19T09:16:16.451Z,98590.09
2022-12-19T09:20:23.669Z,98587.53
2022-12-19T09:24:28.315Z,98588.59
2022-12-19T09:28:31.615Z,98571.66
2022-12-19T09:32:34.335Z,98561.09
2022-12-19T09:36:38.341Z,98566.19
2022-12-19T09:40:57.602Z,98562.81
2022-12-19T09:45:31.585Z,98554.38
2022-12-19T09:49:39.895Z,98548.03
2022-12-19T09:54:00.614Z,98547.06
2022-12-19T09:58:09.079Z,98548.72
2022-12-19T10:02:30.150Z,98553.59
2022-12-19T10:07:18.377Z,98544.75
2022-12-19T10:12:39.793Z,98544.13
2022-12-19T10:15:43.149Z,98528.06
2022-12-19T10:20:00.791Z,98554.09
2022-12-19T10:24:21.826Z,98549.13
2022-12-19T10:28:41.899Z,98549.34
2022-12-19T10:32:57.175Z,98542.56
2022-12-19T10:37:23.232Z,98556.78
2022-12-19T10:41:28.481Z,98546.09
2022-12-19T10:45:41.078Z,98542.28
2022-12-19T10:49:45.148Z,98546.94
2022-12-19T10:53:55.081Z,98545.34
2022-12-19T10:57:59.749Z,98545.34
2022-12-19T11:02:27.774Z,98552.44
2022-12-19T11:06:47.327Z,98542.25
2022-12-19T11:12:12.961Z,98525.53
2022-12-19T11:20:10.167Z,98507.03
2022-12-19T11:29:27.285Z,98495.81
2022-12-19T11:29:42.128Z,98478.72
2022-12-19T11:30:48.174Z,98480.09
2022-12-19T11:33:09.922Z,98471.00
2022-12-19T11:37:21.476Z,98475.97
2022-12-19T11:41:33.059Z,98456.97
2022-12-19T11:45:42.023Z,98435.63
2022-12-19T11:49:49.880Z,98447.44
2022-12-19T11:54:04.031Z,98450.78
2022-12-19T11:58:06.667Z,98451.31
2022-12-19T12:02:43.767Z,98451.31
2022-12-19T12:06:51.200Z,98451.16
2022-12-19T12:17:10.044Z,98459.47
2022-12-19T12:28:47.915Z,98452.13
2022-12-19T12:31:07.301Z,98441.69
2022-12-19T12:31:47.318Z,98442.03
2022-12-19T12:32:06.163Z,98422.13
2022-12-19T12:35:22.332Z,98423.69
2022-12-19T12:38:52.498Z,98430.34
2022-12-19T12:43:04.761Z,98413.03
2022-12-19T12:47:18.215Z,98424.03
2022-12-19T12:51:22.465Z,98398.09
2022-12-19T12:55:28.608Z,98388.22
2022-12-19T12:59:32.197Z,98408.03
2022-12-19T13:03:36.525Z,98396.13
2022-12-19T13:07:44.481Z,98397.22
2022-12-19T13:12:21.005Z,98406.56
2022-12-19T13:16:53.395Z,98401.28
2022-12-19T13:20:57.785Z,98399.75
2022-12-19T13:25:01.926Z,98403.81
2022-12-19T13:29:26.016Z,98387.88
2022-12-19T13:33:46.282Z,98410.78
2022-12-19T13:39:56.273Z,98387.03
2022-12-19T13:42:34.163Z,98380.94
2022-12-19T13:46:41.521Z,98386.16
2022-12-19T13:50:47.739Z,98395.69
2022-12-19T13:54:58.114Z,98392.81
2022-12-19T13:59:03.686Z,98387.00
2022-12-19T14:03:16.741Z,98375.69
2022-12-19T14:07:36.974Z,98359.50
2022-12-19T14:13:36.905Z,98370.22
2022-12-19T14:16:07.997Z,98387.97
2022-12-19T14:22:02.675Z,98395.69
2022-12-19T14:24:54.211Z,98388.06
2022-12-19T14:29:02.303Z,98367.94
2022-12-19T14:33:47.019Z,98365.41
2022-12-19T14:38:12.705Z,98369.50
2022-12-19T14:43:55.785Z,98367.88
2022-12-19T14:52:36.193Z,98365.13
2022-12-19T14:54:26.482Z,98356.56
2022-12-19T14:56:19.742Z,98372.72
2022-12-19T15:01:07.069Z,98362.69
2022-12-19T15:05:03.980Z,98366.06
2022-12-19T15:11:00.030Z,98378.59
2022-12-19T15:14:51.745Z,98355.78
2022-12-19T15:17:56.568Z,98360.81
2022-12-19T15:22:00.605Z,98348.84
2022-12-19T15:26:06.850Z,98340.28
2022-12-19T15:30:16.320Z,98346.03
2022-12-19T15:34:46.616Z,98356.63
2022-12-19T15:38:47.637Z,98385.47
2022-12-19T15:42:57.100Z,98356.25
2022-12-19T15:46:59.940Z,98368.88
2022-12-19T15:51:02.649Z,98371.16
2022-12-19T15:55:08.935Z,98369.50
2022-12-19T15:59:24.228Z,98365.00
2022-12-19T16:03:27.328Z,98363.94
2022-12-19T16:07:30.408Z,98366.28
2022-12-19T16:11:34.571Z,98366.94
2022-12-19T16:15:39.513Z,98370.66
2022-12-19T16:19:42.335Z,98366.63
2022-12-19T16:23:45.006Z,98370.16
2022-12-19T16:27:54.170Z,98359.53
2022-12-19T16:31:57.097Z,98366.50
2022-12-19T16:36:05.114Z,98385.16
2022-12-19T16:40:11.704Z,98366.75
2022-12-19T16:44:19.894Z,98367.56
2022-12-19T16:48:24.847Z,98352.41
2022-12-19T16:52:27.537Z,98350.50
2022-12-19T16:56:33.757Z,98344.47
2022-12-19T17:00:40.159Z,98345.41
2022-12-19T17:04:45.400Z,98353.50
2022-12-19T17:08:51.665Z,98359.53
2022-12-19T17:12:55.376Z,98354.31
2022-12-19T17:17:00.368Z,98345.75
2022-12-19T17:21:03.272Z,98346.94
2022-12-19T17:25:17.513Z,98342.81
2022-12-19T17:29:20.318Z,98329.69
2022-12-19T17:33:29.723Z,98326.09
2022-12-19T17:37:32.559Z,98331.50
2022-12-19T17:41:35.295Z,98332.69
2022-12-19T17:45:38.199Z,98333.63
2022-12-19T17:49:42.431Z,98322.09
2022-12-19T17:53:45.603Z,98315.06
2022-12-19T17:57:48.335Z,98316.53
2022-12-19T18:01:51.198Z,98328.13
2022-12-19T18:05:57.166Z,98328.75
2022-12-19T18:10:00.085Z,98317.41
2022-12-19T18:14:02.819Z,98307.66
2022-12-19T18:18:05.831Z,98297.50
2022-12-19T18:22:13.203Z,98297.50
2022-12-19T18:26:16.558Z,98275.59
2022-12-19T18:30:21.081Z,98287.75
2022-12-19T18:34:26.265Z,98291.59
2022-12-19T18:38:30.388Z,98310.75
2022-12-19T18:42:33.076Z,98317.72
2022-12-19T18:46:35.906Z,98293.78
2022-12-19T18:50:38.767Z,98313.41
2022-12-19T18:54:55.172Z,98311.22
2022-12-19T18:59:05.852Z,98294.06
2022-12-19T19:03:20.996Z,98291.53
2022-12-19T19:07:27.726Z,98301.28
2022-12-19T19:11:31.877Z,98298.53
2022-12-19T19:15:47.196Z,98302.13
2022-12-19T19:19:50.108Z,98295.25
2022-12-19T19:24:05.019Z,98305.94
2022-12-19T19:28:09.717Z,98312.06
2022-12-19T19:32:26.506Z,98301.47
2022-12-19T19:36:32.039Z,98300.56
2022-12-19T19:40:34.967Z,98328.66
2022-12-19T19:44:43.252Z,98327.50
2022-12-19T19:48:47.342Z,98328.56
2022-12-19T19:52:49.984Z,98321.06
2022-12-19T19:56:52.666Z,98306.13
2022-12-19T20:01:04.301Z,98300.72
2022-12-19T20:05:07.848Z,98308.66
2022-12-19T20:09:10.670Z,98319.47
2022-12-19T20:13:13.531Z,98329.00
2022-12-19T20:17:23.997Z,98310.78
2022-12-19T20:21:26.748Z,98309.94
2022-12-19T20:25:29.427Z,98323.06
2022-12-19T20:29:32.172Z,98308.03
2022-12-19T20:33:42.404Z,98310.59
2022-12-19T20:37:45.105Z,98319.34
2022-12-19T20:41:47.810Z,98326.47
2022-12-19T20:45:50.596Z,98312.69
2022-12-19T20:49:54.893Z,98295.97
2022-12-19T20:54:02.916Z,98299.38
2022-12-19T20:58:07.525Z,98321.38
2022-12-19T21:02:10.932Z,98327.53
2022-12-19T21:06:16.460Z,98315.69
2022-12-19T21:10:19.287Z,98312.94
2022-12-19T21:14:21.963Z,98308.69
2022-12-19T21:18:25.601Z,98299.81
2022-12-19T21:22:29.780Z,98299.28
2022-12-19T21:26:32.503Z,98299.59
2022-12-19T21:30:35.185Z,98300.19
2022-12-19T21:34:37.904Z,98291.53
2022-12-19T21:38:41.918Z,98289.75
2022-12-19T21:42:44.594Z,98300.81
2022-12-19T21:46:47.273Z,98302.00
2022-12-19T21:50:56.358Z,98294.31
2022-12-19T21:55:00.409Z,98297.34
2022-12-19T21:59:06.554Z,98287.41
2022-12-19T22:03:14.474Z,98302.56
2022-12-19T22:07:17.918Z,98292.41
2022-12-19T22:11:22.495Z,98286.91
2022-12-19T22:15:25.155Z,98286.69
2022-12-19T22:19:27.883Z,98282.22
2022-12-19T22:23:30.772Z,98267.31
2022-12-19T22:27:34.813Z,98254.06
2022-12-19T22:31:38.541Z,98248.88
2022-12-19T22:35:41.426Z,98274.84
2022-12-19T22:39:44.084Z,98259.53
2022-12-19T22:43:48.739Z,98260.25
2022-12-19T22:47:51.398Z,98259.91
2022-12-19T22:51:54.062Z,98261.50
2022-12-19T22:55:56.938Z,98256.81
2022-12-19T23:00:00.951Z,98257.47
2022-12-19T23:04:04.790Z,98249.41
2022-12-19T23:08:07.693Z,98258.28
2022-12-19T23:12:10.380Z,98259.47
2022-12-19T23:16:14.540Z,98268.69
2022-12-19T23:20:17.349Z,98268.03
2022-12-19T23:24:20.604Z,98253.84
2022-12-19T23:28:23.595Z,98252.06
2022-12-19T23:32:27.705Z,98249.31
2022-12-19T23:37:10.143Z,98250.25
2022-12-19T23:40:53.290Z,98248.13
2022-12-19T23:44:55.991Z,98248.88
2022-12-19T23:48:59.977Z,98232.47
2022-12-19T23:53:02.624Z,98226.44
2022-12-19T23:57:05.306Z,98214.78
